Time;durP1;ratioP1;P1;durP2;ratioP2;P2;SDS_P1;SDS_P2;PMS_P1;PMS_P2;Temp;Humidity;BMP_temperature;BMP_pressure;BME280_temperature;BME280_humidity;BME280_pressure;Samples;Min_cycle;Max_cycle;Signal;HPM_P1;HPM_P2
2021/05/28 00:01:54;;;;;;;2.10;1.57;;;11.10;99.90;;;;;;4984718;28;20307;-77
2021/05/28 00:04:20;;;;;;;1.45;1.20;;;11.00;99.90;;;;;;4984410;28;20203;-76
2021/05/28 00:06:45;;;;;;;1.47;1.37;;;11.00;99.90;;;;;;4985661;28;20285;-76
2021/05/28 00:09:11;;;;;;;2.33;1.87;;;11.00;99.90;;;;;;4987013;28;20212;-75
2021/05/28 00:11:38;;;;;;;1.53;1.43;;;10.90;99.90;;;;;;4989155;28;20631;-76
2021/05/28 00:14:04;;;;;;;1.70;1.60;;;11.00;99.90;;;;;;4988694;28;20231;-75
2021/05/28 00:16:30;;;;;;;2.20;1.27;;;11.00;99.90;;;;;;4988086;28;20200;-74
2021/05/28 00:18:55;;;;;;;1.53;1.17;;;11.00;99.90;;;;;;4987391;28;20282;-76
2021/05/28 00:21:21;;;;;;;1.50;1.23;;;10.90;99.90;;;;;;4987890;28;20192;-76
2021/05/28 00:23:47;;;;;;;1.93;1.80;;;10.90;99.90;;;;;;4987354;28;20196;-76
2021/05/28 00:26:13;;;;;;;2.33;1.60;;;10.90;99.90;;;;;;4985203;28;20192;-75
2021/05/28 00:28:40;;;;;;;1.63;1.53;;;10.90;99.90;;;;;;4983838;28;20350;-75
2021/05/28 00:31:06;;;;;;;1.70;1.23;;;10.90;99.90;;;;;;4986104;28;20183;-75
2021/05/28 00:33:32;;;;;;;3.03;1.50;;;10.80;99.90;;;;;;4986581;28;20211;-76
2021/05/28 00:35:58;;;;;;;1.30;1.10;;;10.90;99.90;;;;;;4986492;28;20615;-74
2021/05/28 00:38:23;;;;;;;1.67;1.17;;;10.80;99.90;;;;;;4986347;28;20297;-74
2021/05/28 00:40:49;;;;;;;1.47;1.37;;;10.90;99.90;;;;;;4989203;28;20327;-73
2021/05/28 00:43:15;;;;;;;2.07;1.10;;;10.90;99.90;;;;;;5003809;28;20290;-77
2021/05/28 00:45:40;;;;;;;1.33;1.23;;;10.90;99.90;;;;;;5000409;28;20188;-78
2021/05/28 00:48:09;;;;;;;1.27;1.17;;;10.90;99.90;;;;;;5003039;28;20220;-75
2021/05/28 00:50:35;;;;;;;1.40;1.30;;;11.00;99.90;;;;;;4987286;28;20220;-77
2021/05/28 00:53:02;;;;;;;3.03;1.77;;;10.90;99.90;;;;;;4987291;28;20671;-76
2021/05/28 00:55:28;;;;;;;1.63;1.53;;;10.90;99.90;;;;;;4988469;28;20546;-76
2021/05/28 00:57:55;;;;;;;2.33;1.40;;;11.00;99.90;;;;;;4987315;28;20626;-77
2021/05/28 01:00:26;;;;;;;1.67;1.57;;;10.90;99.90;;;;;;4988424;28;20184;-76
2021/05/28 01:02:53;;;;;;;2.10;1.63;;;10.90;99.90;;;;;;4986601;28;20242;-76
2021/05/28 01:05:19;;;;;;;1.30;1.10;;;10.90;99.90;;;;;;4985610;28;20184;-77
2021/05/28 01:07:49;;;;;;;2.00;1.77;;;10.90;99.90;;;;;;4986604;28;20300;-75
2021/05/28 01:10:15;;;;;;;2.97;1.77;;;10.90;99.90;;;;;;4984856;28;20614;-76
2021/05/28 01:12:42;;;;;;;1.90;1.70;;;10.80;99.90;;;;;;4985581;28;20184;-77
2021/05/28 01:15:09;;;;;;;2.73;1.43;;;10.80;99.90;;;;;;4984605;28;20717;-77
2021/05/28 01:17:35;;;;;;;1.80;1.70;;;10.80;99.90;;;;;;4985300;28;20558;-74
2021/05/28 01:20:02;;;;;;;1.63;1.53;;;10.80;99.90;;;;;;4988969;28;20200;-75
2021/05/28 01:22:27;;;;;;;2.00;1.80;;;10.70;99.90;;;;;;4990809;28;20169;-77
2021/05/28 01:24:53;;;;;;;1.70;1.47;;;10.70;99.90;;;;;;4988001;28;20594;-76
2021/05/28 01:27:20;;;;;;;2.00;1.77;;;10.70;99.90;;;;;;4988571;28;20180;-75
2021/05/28 01:29:47;;;;;;;2.23;1.63;;;10.70;99.90;;;;;;4988131;28;20257;-75
2021/05/28 01:32:14;;;;;;;1.70;1.60;;;10.70;99.90;;;;;;4988250;28;20176;-76
2021/05/28 01:34:40;;;;;;;1.63;1.43;;;10.70;99.90;;;;;;5002359;28;20212;-75
2021/05/28 01:37:06;;;;;;;2.27;1.63;;;10.70;99.90;;;;;;4988161;28;20243;-75
2021/05/28 01:39:31;;;;;;;1.80;1.50;;;10.70;99.90;;;;;;4988382;28;20204;-75
2021/05/28 01:41:57;;;;;;;2.63;1.63;;;10.70;99.90;;;;;;4987830;28;20660;-78
2021/05/28 01:44:23;;;;;;;1.60;1.50;;;10.70;99.90;;;;;;4988182;28;20184;-75
2021/05/28 01:46:49;;;;;;;2.47;1.60;;;10.70;99.90;;;;;;4987951;28;20188;-78
2021/05/28 01:49:15;;;;;;;2.00;1.40;;;10.70;99.90;;;;;;4988014;28;20200;-77
2021/05/28 01:51:51;;;;;;;2.43;1.60;;;10.70;99.90;;;;;;4987968;28;20643;-77
2021/05/28 01:54:18;;;;;;;2.33;1.73;;;10.70;99.90;;;;;;4986763;28;20703;-77
2021/05/28 01:56:47;;;;;;;2.07;1.53;;;10.70;99.90;;;;;;4988066;28;20180;-77
2021/05/28 01:59:23;;;;;;;1.57;1.47;;;10.70;99.90;;;;;;4987958;28;20196;-77
2021/05/28 02:01:48;;;;;;;1.90;1.60;;;10.70;99.90;;;;;;4988880;28;20690;-77
2021/05/28 02:04:14;;;;;;;2.60;1.87;;;10.90;99.90;;;;;;4989116;28;20216;-76
2021/05/28 02:06:40;;;;;;;3.27;2.43;;;10.70;99.90;;;;;;4992948;28;20192;-76
2021/05/28 02:09:08;;;;;;;1.88;1.42;;;10.80;99.90;;;;;;4992983;28;20214;-77
2021/05/28 02:11:34;;;;;;;5.60;1.83;;;10.80;99.90;;;;;;5005302;28;20243;-77
2021/05/28 02:14:00;;;;;;;5.13;3.00;;;10.70;99.90;;;;;;4990338;28;20687;-77
2021/05/28 02:16:25;;;;;;;2.90;2.63;;;10.70;99.90;;;;;;4989211;28;20667;-78
2021/05/28 02:18:51;;;;;;;1.97;1.83;;;10.70;99.90;;;;;;4988238;28;20648;-77
2021/05/28 02:21:17;;;;;;;2.60;1.73;;;10.70;99.90;;;;;;4987552;28;20656;-77
2021/05/28 02:23:42;;;;;;;1.97;1.60;;;10.70;99.90;;;;;;4989925;28;20189;-77
2021/05/28 02:26:14;;;;;;;3.27;1.93;;;10.60;99.90;;;;;;4991365;28;21215;-77
2021/05/28 02:28:40;;;;;;;3.07;2.03;;;10.60;99.90;;;;;;4989799;28;20266;-77
2021/05/28 02:31:06;;;;;;;4.10;2.87;;;10.60;99.90;;;;;;4988383;28;20663;-77
2021/05/28 02:33:31;;;;;;;2.40;1.90;;;10.60;99.90;;;;;;4988184;28;20575;-76
2021/05/28 02:35:59;;;;;;;3.50;2.20;;;10.50;99.90;;;;;;4990307;28;20172;-76
2021/05/28 02:38:24;;;;;;;3.60;2.47;;;10.50;99.90;;;;;;4987387;28;20287;-77
2021/05/28 02:40:50;;;;;;;2.60;2.07;;;10.50;99.90;;;;;;4987377;28;20617;-77
2021/05/28 02:43:16;;;;;;;3.10;2.00;;;10.50;99.90;;;;;;4990193;28;20216;-76
2021/05/28 02:45:42;;;;;;;2.37;1.93;;;10.50;99.90;;;;;;4988943;28;20246;-77
2021/05/28 02:48:08;;;;;;;3.30;2.30;;;10.50;99.90;;;;;;5005800;28;20210;-77
2021/05/28 02:50:34;;;;;;;3.10;2.50;;;10.40;99.90;;;;;;4989418;28;20184;-77
2021/05/28 02:53:01;;;;;;;4.27;1.80;;;10.50;99.90;;;;;;4988825;28;20706;-78
2021/05/28 02:55:31;;;;;;;5.30;2.27;;;10.40;99.90;;;;;;4988290;28;20176;-77
2021/05/28 02:57:56;;;;;;;3.97;2.10;;;10.40;99.90;;;;;;4990603;28;20176;-75
2021/05/28 03:00:23;;;;;;;2.93;2.20;;;10.40;99.90;;;;;;4989800;28;20178;-75
2021/05/28 03:02:51;;;;;;;5.27;2.90;;;10.50;99.90;;;;;;4988250;28;20242;-75
2021/05/28 03:05:17;;;;;;;3.27;2.40;;;10.50;99.90;;;;;;4987984;28;20184;-77
2021/05/28 03:07:43;;;;;;;2.87;2.10;;;10.50;99.90;;;;;;4989287;28;20192;-77
2021/05/28 03:10:10;;;;;;;2.37;2.10;;;10.50;99.90;;;;;;4989442;28;20647;-77
2021/05/28 03:12:36;;;;;;;2.63;2.20;;;10.50;99.90;;;;;;5002567;28;20668;-77
2021/05/28 03:15:07;;;;;;;5.07;2.13;;;10.50;99.90;;;;;;4989877;28;20242;-77
2021/05/28 03:17:34;;;;;;;2.80;2.50;;;10.60;99.90;;;;;;4990262;28;20208;-77
2021/05/28 03:20:15;;;;;;;2.30;2.10;;;10.60;99.90;;;;;;4990743;28;20196;-76
2021/05/28 03:22:40;;;;;;;3.10;2.40;;;10.60;99.90;;;;;;4990685;28;20279;-76
2021/05/28 03:25:10;;;;;;;3.50;2.50;;;10.60;99.90;;;;;;4990058;28;20722;-76
2021/05/28 03:27:36;;;;;;;3.47;2.33;;;10.60;99.90;;;;;;4991433;28;20192;-76
2021/05/28 03:30:10;;;;;;;3.70;2.80;;;10.60;99.90;;;;;;4990808;28;20223;-76
2021/05/28 03:32:36;;;;;;;5.87;3.30;;;10.60;99.90;;;;;;4991249;28;20223;-76
2021/05/28 03:35:05;;;;;;;3.93;2.47;;;10.70;99.90;;;;;;5005851;28;20208;-76
2021/05/28 03:37:31;;;;;;;4.60;3.20;;;10.60;99.90;;;;;;4990024;28;20200;-77
2021/05/28 03:40:02;;;;;;;4.37;2.97;;;10.70;99.90;;;;;;4988583;28;20231;-77
2021/05/28 03:42:28;;;;;;;3.77;2.97;;;10.70;99.90;;;;;;5003403;28;20184;-77
2021/05/28 03:44:58;;;;;;;5.20;3.20;;;10.70;99.90;;;;;;4987300;28;20714;-76
2021/05/28 03:47:24;;;;;;;5.00;3.30;;;10.80;99.90;;;;;;5004924;28;20663;-77
2021/05/28 03:49:52;;;;;;;5.07;3.20;;;10.80;99.90;;;;;;4988576;28;20219;-77
2021/05/28 03:52:17;;;;;;;3.47;2.90;;;10.80;99.90;;;;;;4988252;28;20235;-76
2021/05/28 03:54:43;;;;;;;5.70;3.83;;;10.80;99.90;;;;;;4988551;28;20303;-77
2021/05/28 03:57:09;;;;;;;4.37;2.97;;;10.80;99.90;;;;;;4988003;28;20188;-76
2021/05/28 03:59:35;;;;;;;7.37;3.13;;;10.80;99.90;;;;;;4991077;28;20705;-76
2021/05/28 04:02:02;;;;;;;3.27;2.97;;;10.80;99.90;;;;;;4991789;28;20180;-76
2021/05/28 04:04:27;;;;;;;7.30;3.13;;;10.80;99.90;;;;;;4989794;28;20184;-77
2021/05/28 04:06:53;;;;;;;3.83;2.80;;;10.70;99.90;;;;;;4991052;28;20234;-76
2021/05/28 04:09:27;;;;;;;3.97;2.87;;;10.80;99.90;;;;;;4989167;28;20678;-77
2021/05/28 04:11:52;;;;;;;3.40;2.63;;;10.80;99.90;;;;;;4992130;28;20176;-76
2021/05/28 04:14:18;;;;;;;3.70;3.30;;;10.80;99.90;;;;;;4988067;28;20219;-77
2021/05/28 04:16:44;;;;;;;5.07;2.97;;;10.80;99.90;;;;;;5007186;28;20587;-76
2021/05/28 04:19:36;;;;;;;2.80;2.60;;;10.80;99.90;;;;;;5004678;28;20203;-76
2021/05/28 04:22:01;;;;;;;2.93;2.57;;;10.80;99.90;;;;;;4989607;28;20214;-76
2021/05/28 04:24:29;;;;;;;3.40;2.80;;;10.70;99.90;;;;;;4988596;28;20290;-77
2021/05/28 04:26:55;;;;;;;2.73;2.20;;;10.70;99.90;;;;;;4990512;28;20204;-76
2021/05/28 04:29:21;;;;;;;3.47;2.80;;;10.70;99.90;;;;;;4988656;28;20247;-76
2021/05/28 04:31:47;;;;;;;3.50;3.03;;;10.70;99.90;;;;;;5007763;28;20184;-76
2021/05/28 04:34:13;;;;;;;2.80;2.60;;;10.70;99.90;;;;;;4989349;28;20230;-76
2021/05/28 04:36:38;;;;;;;4.80;3.00;;;10.70;99.90;;;;;;4992730;28;20306;-77
2021/05/28 04:39:10;;;;;;;2.50;2.30;;;10.70;99.90;;;;;;4990533;28;20240;-77
2021/05/28 04:41:38;;;;;;;4.07;3.00;;;10.80;99.90;;;;;;4992216;28;20172;-77
2021/05/28 04:44:04;;;;;;;3.60;2.75;;;10.80;99.90;;;;;;4989203;28;20211;-77
2021/05/28 04:46:43;;;;;;;4.30;3.47;;;10.90;99.90;;;;;;4992444;28;20621;-75
2021/05/28 04:49:08;;;;;;;4.90;2.73;;;10.90;99.90;;;;;;4991090;28;20238;-77
2021/05/28 04:51:35;;;;;;;3.77;3.00;;;10.90;99.90;;;;;;4992518;28;20188;-77
2021/05/28 04:54:01;;;;;;;6.03;3.03;;;10.90;99.90;;;;;;5009711;28;20208;-76
2021/05/28 04:56:45;;;;;;;4.50;3.10;;;10.90;99.90;;;;;;4996742;28;20195;-76
2021/05/28 04:59:10;;;;;;;3.13;2.77;;;10.90;99.90;;;;;;4997194;28;20226;-76
2021/05/28 05:01:36;;;;;;;6.63;3.20;;;10.80;99.90;;;;;;4996779;28;20643;-76
2021/05/28 05:04:35;;;;;;;2.77;2.40;;;10.80;99.90;;;;;;4997063;28;20184;-76
2021/05/28 05:07:00;;;;;;;2.83;2.50;;;10.80;99.90;;;;;;4995554;28;20671;-76
2021/05/28 05:09:26;;;;;;;4.17;3.30;;;11.00;99.90;;;;;;4983864;28;20239;-76
2021/05/28 05:11:52;;;;;;;2.73;2.53;;;11.00;99.90;;;;;;4987662;28;20242;-76
2021/05/28 05:14:18;;;;;;;5.53;2.37;;;11.20;99.90;;;;;;4987784;28;20204;-76
2021/05/28 05:16:43;;;;;;;3.07;2.67;;;11.20;99.90;;;;;;4988579;28;20271;-76
2021/05/28 05:19:09;;;;;;;4.60;2.93;;;11.40;99.90;;;;;;4988179;28;20215;-78
2021/05/28 05:21:34;;;;;;;2.77;2.37;;;11.50;99.90;;;;;;4988799;28;20605;-77
2021/05/28 05:24:00;;;;;;;3.70;2.63;;;11.60;99.90;;;;;;4988006;28;20575;-77
2021/05/28 05:26:26;;;;;;;3.33;2.60;;;11.50;99.90;;;;;;4988404;28;20270;-76
2021/05/28 05:28:52;;;;;;;3.80;3.00;;;11.40;99.90;;;;;;4988315;28;20200;-77
2021/05/28 05:31:17;;;;;;;3.20;2.90;;;11.50;99.90;;;;;;4988710;28;20605;-76
2021/05/28 05:33:43;;;;;;;4.82;3.67;;;11.50;99.90;;;;;;4987474;28;20687;-77
2021/05/28 05:36:09;;;;;;;3.72;3.15;;;11.40;99.90;;;;;;5003726;28;20181;-75
2021/05/28 05:38:35;;;;;;;3.17;2.85;;;11.50;99.90;;;;;;4988548;28;20283;-76
2021/05/28 05:41:00;;;;;;;3.30;2.97;;;11.50;99.90;;;;;;4988159;28;20187;-75
2021/05/28 05:43:26;;;;;;;4.05;3.30;;;11.60;99.90;;;;;;4989773;28;20194;-76
2021/05/28 05:45:51;;;;;;;5.22;3.35;;;11.70;99.90;;;;;;4991671;28;21159;-76
2021/05/28 05:48:23;;;;;;;5.00;3.30;;;11.80;99.90;;;;;;4990074;28;20591;-74
2021/05/28 05:50:49;;;;;;;4.20;3.10;;;11.80;99.90;;;;;;4989638;28;20263;-75
2021/05/28 05:53:17;;;;;;;3.95;3.55;;;11.80;99.90;;;;;;4988696;28;20176;-78
2021/05/28 05:55:42;;;;;;;4.15;2.97;;;11.80;99.90;;;;;;4988768;28;20176;-75
2021/05/28 05:58:08;;;;;;;3.85;3.28;;;11.80;99.90;;;;;;4989752;28;20222;-74
2021/05/28 06:00:33;;;;;;;3.35;2.90;;;11.80;99.90;;;;;;5003862;28;20195;-74
2021/05/28 06:03:06;;;;;;;4.93;3.55;;;11.70;99.90;;;;;;4991818;28;20215;-76
2021/05/28 06:05:33;;;;;;;4.15;3.30;;;11.90;99.90;;;;;;5010237;28;20179;-76
2021/05/28 06:07:59;;;;;;;4.32;3.33;;;11.80;99.90;;;;;;4996130;28;20181;-75
2021/05/28 06:10:57;;;;;;;5.07;3.40;;;11.80;99.90;;;;;;4996341;28;20187;-74
2021/05/28 06:13:22;;;;;;;3.20;2.90;;;11.80;99.90;;;;;;5001915;23;20224;-79
2021/05/28 06:15:50;;;;;;;4.15;3.08;;;11.70;99.90;;;;;;4992967;28;20195;-77
2021/05/28 06:18:16;;;;;;;3.77;2.97;;;11.70;99.90;;;;;;5006990;28;20297;-79
2021/05/28 06:23:17;;;;;;;3.35;3.05;;;11.70;99.90;;;;;;5191171;22;20230;-77
2021/05/28 06:25:46;;;;;;;4.07;3.00;;;11.90;99.90;;;;;;5031245;28;20558;-80
2021/05/28 06:28:12;;;;;;;3.33;3.03;;;11.90;99.90;;;;;;5026123;28;20198;-77
2021/05/28 06:30:37;;;;;;;2.80;2.58;;;12.10;99.90;;;;;;5032405;28;20189;-77
2021/05/28 06:33:07;;;;;;;3.13;2.75;;;12.20;99.90;;;;;;5028293;28;20699;-79
2021/05/28 06:35:34;;;;;;;3.95;2.80;;;12.30;99.90;;;;;;5028323;28;20396;-78
2021/05/28 06:38:00;;;;;;;3.28;2.72;;;12.40;99.90;;;;;;5028389;28;20746;-79
2021/05/28 06:40:25;;;;;;;2.83;2.42;;;12.40;99.90;;;;;;5027579;28;20183;-78
2021/05/28 06:42:51;;;;;;;4.18;3.08;;;12.70;99.90;;;;;;5024016;28;20206;-79
2021/05/28 06:45:18;;;;;;;3.95;3.20;;;12.90;99.90;;;;;;5027442;28;20183;-78
2021/05/28 06:47:46;;;;;;;2.97;2.42;;;13.00;99.90;;;;;;5026421;28;20187;-79
2021/05/28 06:50:13;;;;;;;4.55;2.88;;;13.30;99.90;;;;;;5026563;28;20475;-79
2021/05/28 06:52:38;;;;;;;4.20;2.75;;;13.50;99.90;;;;;;5026671;28;20213;-78
2021/05/28 06:55:05;;;;;;;2.70;2.50;;;13.70;99.90;;;;;;5027473;28;20210;-78
2021/05/28 06:57:30;;;;;;;4.68;3.17;;;13.90;99.90;;;;;;5026220;28;20183;-79
2021/05/28 06:59:56;;;;;;;3.63;2.45;;;14.10;99.90;;;;;;5025845;28;20228;-78
2021/05/28 07:02:22;;;;;;;3.03;2.72;;;14.20;99.90;;;;;;5027035;28;20195;-78
2021/05/28 07:04:48;;;;;;;2.92;2.63;;;14.50;99.90;;;;;;5027066;28;20228;-78
2021/05/28 07:07:14;;;;;;;2.58;2.30;;;14.90;99.90;;;;;;5025800;28;20182;-80
2021/05/28 07:09:39;;;;;;;3.38;3.00;;;15.30;99.90;;;;;;5026863;28;20187;-79
2021/05/28 07:12:05;;;;;;;3.03;2.45;;;15.50;99.90;;;;;;5026645;28;20310;-78
2021/05/28 07:14:31;;;;;;;2.80;2.60;;;15.60;99.90;;;;;;5025371;28;20221;-78
2021/05/28 07:16:56;;;;;;;2.95;2.50;;;15.40;99.90;;;;;;5025937;28;20189;-79
2021/05/28 07:19:22;;;;;;;2.67;2.38;;;15.30;99.90;;;;;;5026657;28;20308;-80
2021/05/28 07:21:47;;;;;;;3.40;2.30;;;15.10;99.90;;;;;;5026519;28;20226;-78
2021/05/28 07:24:13;;;;;;;5.32;3.00;;;15.00;99.90;;;;;;5007765;28;20202;-78
2021/05/28 07:26:39;;;;;;;2.78;2.35;;;15.10;99.90;;;;;;5023396;28;20270;-78
2021/05/28 07:29:04;;;;;;;2.30;2.10;;;14.90;99.90;;;;;;5023925;28;20183;-78
2021/05/28 07:31:30;;;;;;;3.72;2.42;;;14.60;99.90;;;;;;5021581;28;20214;-78
2021/05/28 07:33:56;;;;;;;2.58;2.38;;;14.30;99.90;;;;;;5004942;28;20210;-78
2021/05/28 07:36:23;;;;;;;5.38;2.28;;;14.20;99.90;;;;;;5022710;28;20175;-78
2021/05/28 07:38:49;;;;;;;2.55;2.10;;;14.40;99.90;;;;;;5006633;28;20231;-77
2021/05/28 07:41:15;;;;;;;2.40;2.03;;;14.40;99.90;;;;;;5026892;28;20709;-77
2021/05/28 07:43:41;;;;;;;2.33;2.00;;;14.10;99.90;;;;;;5025369;28;20406;-77
2021/05/28 07:46:06;;;;;;;2.22;2.03;;;14.20;99.90;;;;;;5009484;28;20194;-77
2021/05/28 07:48:32;;;;;;;2.50;2.22;;;14.30;99.90;;;;;;5026797;28;20179;-76
2021/05/28 07:50:58;;;;;;;2.22;2.00;;;14.30;99.90;;;;;;5027017;28;20195;-77
2021/05/28 07:53:26;;;;;;;2.72;1.83;;;14.40;99.90;;;;;;5024848;28;20218;-76
2021/05/28 07:55:54;;;;;;;1.98;1.88;;;14.50;99.90;;;;;;5025090;28;20459;-77
2021/05/28 07:58:20;;;;;;;1.90;1.75;;;14.60;99.90;;;;;;5009325;28;20179;-76
2021/05/28 08:00:45;;;;;;;2.13;1.55;;;14.70;99.90;;;;;;5029066;28;20190;-78
2021/05/28 08:03:11;;;;;;;2.47;1.80;;;15.00;99.90;;;;;;5028744;28;20309;-78
2021/05/28 08:05:37;;;;;;;3.35;1.85;;;15.00;99.90;;;;;;5010589;28;20197;-79
2021/05/28 08:08:03;;;;;;;2.22;2.03;;;15.20;99.90;;;;;;5026694;28;20275;-78
2021/05/28 08:10:30;;;;;;;2.85;2.03;;;15.40;99.90;;;;;;5026847;28;20198;-79
2021/05/28 08:12:56;;;;;;;3.60;1.63;;;15.70;99.90;;;;;;5016981;28;20195;-78
2021/05/28 08:15:23;;;;;;;2.05;1.20;;;15.70;99.90;;;;;;5010378;28;20207;-78
2021/05/28 08:17:50;;;;;;;2.72;1.80;;;15.50;99.90;;;;;;5026470;28;20233;-78
2021/05/28 08:20:16;;;;;;;2.53;1.90;;;15.70;99.90;;;;;;5024071;28;20266;-78
2021/05/28 08:22:44;;;;;;;2.08;1.88;;;15.80;99.90;;;;;;5006990;28;20741;-78
2021/05/28 08:25:11;;;;;;;2.72;1.55;;;15.90;99.90;;;;;;5021746;28;20236;-78
2021/05/28 08:27:37;;;;;;;2.58;1.75;;;15.80;99.90;;;;;;5021935;28;20286;-78
2021/05/28 08:30:04;;;;;;;2.65;2.03;;;16.00;99.90;;;;;;5022835;28;20742;-77
2021/05/28 08:32:30;;;;;;;3.13;1.50;;;16.40;99.90;;;;;;5021792;28;20210;-78
2021/05/28 08:34:56;;;;;;;1.58;1.40;;;16.40;99.90;;;;;;5022146;28;20213;-77
2021/05/28 08:37:21;;;;;;;2.83;1.38;;;16.40;99.90;;;;;;5022072;28;20788;-77
2021/05/28 08:39:47;;;;;;;1.90;1.40;;;16.60;99.90;;;;;;5021853;28;20209;-77
2021/05/28 08:42:12;;;;;;;2.03;1.70;;;16.80;99.90;;;;;;5021585;28;20281;-78
2021/05/28 08:44:40;;;;;;;1.92;1.60;;;16.90;99.90;;;;;;5021646;28;20227;-78
2021/05/28 08:47:06;;;;;;;1.50;1.40;;;16.70;99.90;;;;;;5021869;28;20245;-78
2021/05/28 08:49:32;;;;;;;2.75;1.48;;;16.70;99.90;;;;;;5022035;28;20199;-78
2021/05/28 08:51:58;;;;;;;2.20;1.77;;;16.70;99.90;;;;;;5020147;28;20198;-78
2021/05/28 08:54:27;;;;;;;2.30;1.50;;;16.80;99.90;;;;;;5004282;28;20610;-77
2021/05/28 08:56:53;;;;;;;3.92;1.88;;;17.00;99.90;;;;;;5021698;28;20242;-78
2021/05/28 08:59:18;;;;;;;2.30;2.00;;;17.10;99.90;;;;;;5029810;28;20189;-78
2021/05/28 09:01:44;;;;;;;2.63;2.10;;;17.00;99.90;;;;;;5028957;28;20270;-78
2021/05/28 09:04:11;;;;;;;2.22;1.90;;;16.70;99.90;;;;;;5029190;28;20713;-78
2021/05/28 09:06:41;;;;;;;3.17;2.17;;;16.80;99.90;;;;;;5028714;28;20341;-77
2021/05/28 09:09:09;;;;;;;2.25;1.92;;;16.90;99.90;;;;;;5027225;28;20933;-77
2021/05/28 09:12:00;;;;;;;3.15;2.05;;;16.90;99.90;;;;;;5027120;28;20210;-78
2021/05/28 09:14:33;;;;;;;2.45;2.15;;;16.90;99.90;;;;;;5028340;28;20329;-78
2021/05/28 09:17:00;;;;;;;2.67;1.90;;;16.70;99.90;;;;;;5028994;28;20174;-78
2021/05/28 09:19:26;;;;;;;2.72;2.13;;;16.90;99.90;;;;;;5027925;28;20187;-77
2021/05/28 09:22:09;;;;;;;2.85;1.90;;;16.90;99.90;;;;;;5027507;28;20708;-78
2021/05/28 09:24:38;;;;;;;3.15;1.83;;;17.00;99.90;;;;;;5028244;28;20514;-79
2021/05/28 09:27:33;;;;;;;1.90;1.60;;;16.80;99.90;;;;;;5029807;28;20214;-78
2021/05/28 09:29:59;;;;;;;2.78;1.80;;;16.70;99.90;;;;;;5028842;28;20186;-77
2021/05/28 09:32:25;;;;;;;2.38;1.75;;;17.00;99.90;;;;;;5029485;28;20234;-78
2021/05/28 09:34:51;;;;;;;3.63;2.05;;;17.20;99.90;;;;;;5029742;28;20234;-76
2021/05/28 09:37:17;;;;;;;2.95;1.92;;;17.30;99.90;;;;;;5029373;28;20175;-77
2021/05/28 09:39:42;;;;;;;2.20;1.85;;;17.30;99.90;;;;;;5028346;28;20190;-79
2021/05/28 09:42:08;;;;;;;5.10;2.17;;;17.40;99.90;;;;;;5029544;28;20215;-78
2021/05/28 09:44:34;;;;;;;2.10;1.70;;;17.50;99.90;;;;;;5033951;28;20202;-78
2021/05/28 09:47:06;;;;;;;2.83;1.70;;;17.60;99.90;;;;;;5033075;28;20175;-78
2021/05/28 09:49:43;;;;;;;1.67;1.58;;;17.50;99.90;;;;;;5031196;28;20734;-78
2021/05/28 09:52:16;;;;;;;1.88;1.50;;;17.80;99.90;;;;;;5031503;28;20199;-77
2021/05/28 09:55:03;;;;;;;2.03;1.83;;;18.10;99.90;;;;;;5031649;28;20203;-77
2021/05/28 09:57:49;;;;;;;3.55;1.75;;;17.90;99.90;;;;;;5029186;28;20191;-78
2021/05/28 10:00:33;;;;;;;1.73;1.42;;;18.20;99.90;;;;;;5026578;28;20174;-78
2021/05/28 10:03:20;;;;;;;1.63;1.52;;;18.30;99.90;;;;;;5030478;28;20202;-78
2021/05/28 10:05:48;;;;;;;1.50;1.40;;;18.70;99.90;;;;;;5013203;28;20201;-77
2021/05/28 10:08:16;;;;;;;1.90;1.65;;;19.00;99.90;;;;;;5026625;28;20365;-77
2021/05/28 10:10:43;;;;;;;1.35;1.25;;;19.20;99.90;;;;;;5027221;28;20179;-78
2021/05/28 10:13:10;;;;;;;2.17;1.30;;;18.90;99.90;;;;;;5004632;28;20199;-78
2021/05/28 10:16:03;;;;;;;2.40;1.90;;;18.90;99.90;;;;;;5024441;28;20182;-77
2021/05/28 10:18:30;;;;;;;1.10;1.10;;;19.20;99.90;;;;;;5021523;28;20253;-77
2021/05/28 10:20:55;;;;;;;1.67;1.55;;;19.00;99.90;;;;;;5023914;28;20205;-78
2021/05/28 10:23:25;;;;;;;2.38;1.90;;;19.20;99.90;;;;;;5023484;28;20482;-78
2021/05/28 10:25:58;;;;;;;2.92;1.80;;;19.10;99.90;;;;;;5023850;28;20210;-77
2021/05/28 10:28:30;;;;;;;2.10;1.95;;;19.00;99.90;;;;;;5023489;28;20242;-77
2021/05/28 10:30:56;;;;;;;2.03;1.88;;;19.10;99.90;;;;;;5026730;28;20171;-77
2021/05/28 10:33:23;;;;;;;2.85;2.00;;;19.00;99.90;;;;;;5025888;28;20214;-78
2021/05/28 10:35:56;;;;;;;3.03;1.70;;;19.00;99.90;;;;;;5006078;28;20179;-78
2021/05/28 10:38:31;;;;;;;1.95;1.77;;;18.80;99.90;;;;;;5023297;28;20175;-77
2021/05/28 10:41:19;;;;;;;3.55;2.47;;;18.70;99.90;;;;;;5023350;28;20865;-78
2021/05/28 10:43:50;;;;;;;1.63;1.50;;;18.80;99.90;;;;;;5023570;28;20190;-78
2021/05/28 10:46:20;;;;;;;4.70;2.20;;;19.10;99.90;;;;;;5023589;28;20183;-78
2021/05/28 10:48:45;;;;;;;1.63;1.23;;;18.90;99.90;;;;;;5022734;28;20218;-78
2021/05/28 10:51:22;;;;;;;2.20;1.90;;;18.90;99.90;;;;;;5023215;28;20293;-77
2021/05/28 10:53:53;;;;;;;1.45;1.23;;;18.80;99.90;;;;;;5023317;28;20687;-78
2021/05/28 10:56:22;;;;;;;2.78;1.42;;;18.60;99.90;;;;;;5023314;28;20175;-78
2021/05/28 10:59:11;;;;;;;1.13;1.02;;;18.50;99.90;;;;;;5023241;28;20222;-77
2021/05/28 11:01:43;;;;;;;2.00;1.17;;;18.60;99.90;;;;;;5023239;28;20230;-78
2021/05/28 11:04:14;;;;;;;2.40;1.58;;;19.10;99.90;;;;;;5023532;28;20182;-78
2021/05/28 11:06:55;;;;;;;1.80;1.70;;;19.20;99.90;;;;;;5023191;28;20189;-78
2021/05/28 11:09:39;;;;;;;2.55;1.85;;;19.70;99.90;;;;;;5023017;28;20256;-77
2021/05/28 11:12:39;;;;;;;4.13;1.63;;;19.50;99.90;;;;;;5022697;28;20411;-78
2021/05/28 11:15:14;;;;;;;1.83;1.50;;;19.70;99.90;;;;;;5021524;28;20215;-78
2021/05/28 11:18:04;;;;;;;2.13;1.90;;;19.60;99.90;;;;;;5023279;28;21459;-78
2021/05/28 11:20:38;;;;;;;1.70;1.60;;;19.10;99.90;;;;;;5022031;28;20678;-78
2021/05/28 11:23:16;;;;;;;5.53;1.90;;;19.00;99.90;;;;;;5022622;28;20214;-78
2021/05/28 11:25:52;;;;;;;2.50;1.92;;;19.00;99.90;;;;;;5023111;28;20171;-78
2021/05/28 11:28:19;;;;;;;2.53;2.22;;;19.10;99.90;;;;;;5021458;28;20336;-77
2021/05/28 11:30:50;;;;;;;2.17;1.77;;;19.00;99.90;;;;;;5022680;28;20179;-78
2021/05/28 11:33:38;;;;;;;3.33;2.15;;;18.70;99.90;;;;;;5022773;28;20199;-78
2021/05/28 11:36:45;;;;;;;3.58;2.13;;;18.50;99.90;;;;;;5022786;28;20606;-78
2021/05/28 11:39:20;;;;;;;2.95;1.98;;;18.20;99.90;;;;;;4983094;28;20718;-78
2021/05/28 11:42:05;;;;;;;2.30;2.08;;;18.30;99.90;;;;;;5022204;28;20264;-78
2021/05/28 11:44:34;;;;;;;2.33;2.03;;;18.70;99.90;;;;;;5022465;28;20665;-78
2021/05/28 11:47:02;;;;;;;3.50;2.35;;;19.10;99.90;;;;;;5022466;28;20187;-78
2021/05/28 11:49:28;;;;;;;2.22;2.05;;;19.30;99.90;;;;;;5022242;28;20187;-78
2021/05/28 11:52:01;;;;;;;2.88;2.20;;;19.20;99.90;;;;;;5022403;28;20329;-77
2021/05/28 11:54:29;;;;;;;2.40;2.20;;;19.10;99.90;;;;;;5020084;28;20211;-77
2021/05/28 11:57:06;;;;;;;3.10;1.95;;;19.30;99.90;;;;;;5022426;28;20566;-78
2021/05/28 11:59:55;;;;;;;1.85;1.67;;;19.40;99.90;;;;;;5022596;28;20201;-78
2021/05/28 12:02:40;;;;;;;3.45;2.42;;;19.70;99.90;;;;;;5021482;28;20201;-78
2021/05/28 12:05:16;;;;;;;2.13;1.80;;;20.00;99.90;;;;;;5020961;28;20262;-77
2021/05/28 12:07:42;;;;;;;5.32;1.77;;;20.00;99.90;;;;;;5021998;28;20190;-78
2021/05/28 12:10:11;;;;;;;2.75;1.70;;;20.10;99.90;;;;;;5022008;28;20198;-78
2021/05/28 12:12:57;;;;;;;1.70;1.58;;;20.00;99.90;;;;;;5020280;28;20715;-78
2021/05/28 12:15:25;;;;;;;2.10;1.90;;;19.80;99.90;;;;;;5020436;28;20707;-78
2021/05/28 12:17:51;;;;;;;2.25;1.60;;;19.80;99.90;;;;;;5021881;28;20177;-78
2021/05/28 12:20:25;;;;;;;2.60;1.85;;;19.80;99.90;;;;;;5004229;28;20183;-78
2021/05/28 12:23:10;;;;;;;1.65;1.48;;;19.70;99.90;;;;;;5021291;28;20222;-78
2021/05/28 12:25:46;;;;;;;4.53;1.73;;;19.40;99.90;;;;;;5021977;28;20183;-78
2021/05/28 12:28:18;;;;;;;2.80;1.50;;;19.20;99.90;;;;;;5021686;28;20902;-78
2021/05/28 12:30:49;;;;;;;1.83;1.73;;;19.30;99.90;;;;;;5020384;28;20202;-78
2021/05/28 12:33:17;;;;;;;1.70;1.48;;;19.30;99.90;;;;;;5022243;28;20203;-78
2021/05/28 12:35:49;;;;;;;2.65;1.67;;;19.30;99.90;;;;;;5021633;28;20217;-79
2021/05/28 12:38:18;;;;;;;1.70;1.60;;;19.60;99.90;;;;;;5021718;28;20179;-78
2021/05/28 12:40:47;;;;;;;1.75;1.65;;;19.30;99.90;;;;;;5020008;28;20175;-78
2021/05/28 12:43:25;;;;;;;2.00;1.70;;;19.30;99.90;;;;;;5021474;28;20467;-78
2021/05/28 12:45:52;;;;;;;2.05;1.60;;;19.50;99.90;;;;;;5022147;28;20556;-78
2021/05/28 12:48:18;;;;;;;2.35;1.60;;;19.60;99.90;;;;;;5020302;28;20241;-77
2021/05/28 12:50:46;;;;;;;2.53;1.60;;;19.10;99.90;;;;;;5021615;28;20652;-77
2021/05/28 12:53:20;;;;;;;3.35;2.00;;;18.60;99.90;;;;;;5021474;28;20202;-77
2021/05/28 12:55:56;;;;;;;3.03;2.10;;;18.70;99.90;;;;;;5021557;28;20197;-77
2021/05/28 12:58:22;;;;;;;2.70;2.20;;;18.60;99.90;;;;;;5021201;28;20253;-78
2021/05/28 13:01:03;;;;;;;3.28;1.88;;;18.90;99.90;;;;;;5021159;28;20183;-78